createdAt,value
2022-12-27T00:00:09.219Z,2.00
2022-12-27T00:00:22.463Z,2.10
2022-12-27T00:00:33.252Z,2.20
2022-12-27T00:00:45.721Z,1.90
2022-12-27T00:00:56.488Z,2.40
2022-12-27T00:01:08.954Z,2.50
2022-12-27T00:01:19.710Z,2.50
2022-12-27T00:01:31.579Z,2.30
2022-12-27T00:01:45.354Z,2.20
2022-12-27T00:01:58.095Z,2.10
2022-12-27T00:02:08.923Z,2.00
2022-12-27T00:02:21.425Z,2.00
2022-12-27T00:02:33.924Z,1.80
2022-12-27T00:02:46.409Z,1.60
2022-12-27T00:02:57.165Z,2.10
2022-12-27T00:03:07.942Z,2.40
2022-12-27T00:03:18.812Z,2.50
2022-12-27T00:03:29.603Z,2.20
2022-12-27T00:03:40.306Z,2.30
2022-12-27T00:03:51.045Z,2.10
2022-12-27T00:04:01.777Z,2.20
2022-12-27T00:04:12.537Z,1.90
2022-12-27T00:04:23.333Z,2.10
2022-12-27T00:04:34.061Z,2.20
2022-12-27T00:04:44.816Z,2.50
2022-12-27T00:04:55.546Z,2.40
2022-12-27T00:05:06.278Z,2.70
2022-12-27T00:05:16.995Z,2.20
2022-12-27T00:05:27.745Z,2.40
2022-12-27T00:05:38.488Z,2.50
2022-12-27T00:05:49.207Z,2.50
2022-12-27T00:05:59.938Z,2.30
2022-12-27T00:06:11.674Z,2.50
2022-12-27T00:06:22.437Z,2.40
2022-12-27T00:06:33.179Z,2.50
2022-12-27T00:06:43.904Z,2.30
2022-12-27T00:06:54.633Z,2.20
2022-12-27T00:07:06.346Z,2.10
2022-12-27T00:07:17.180Z,1.90
2022-12-27T00:07:27.883Z,2.10
2022-12-27T00:07:39.494Z,2.10
2022-12-27T00:07:51.955Z,2.10
2022-12-27T00:08:03.737Z,2.50
2022-12-27T00:08:16.184Z,2.70
2022-12-27T00:08:26.935Z,2.90
2022-12-27T00:08:39.393Z,2.60
2022-12-27T00:08:50.128Z,2.90
2022-12-27T00:09:00.847Z,3.20
2022-12-27T00:09:11.579Z,3.10
2022-12-27T00:09:23.327Z,2.60
2022-12-27T00:09:34.062Z,2.60
2022-12-27T00:09:44.815Z,2.90
2022-12-27T00:09:57.933Z,2.90
2022-12-27T00:10:10.385Z,3.00
2022-12-27T00:10:21.139Z,2.80
2022-12-27T00:10:31.914Z,3.00
2022-12-27T00:10:44.885Z,2.60
2022-12-27T00:10:55.607Z,2.20
2022-12-27T00:11:08.811Z,1.80
2022-12-27T00:11:19.569Z,1.90
2022-12-27T00:11:31.515Z,1.90
2022-12-27T00:11:42.298Z,1.60
2022-12-27T00:11:59.824Z,2.20
2022-12-27T00:12:10.130Z,2.30
2022-12-27T00:12:23.846Z,1.90
2022-12-27T00:12:37.037Z,2.00
2022-12-27T00:12:48.771Z,1.90
2022-12-27T00:12:59.498Z,1.80
2022-12-27T00:13:11.960Z,1.80
2022-12-27T00:13:22.685Z,1.70
2022-12-27T00:13:33.458Z,1.90
2022-12-27T00:13:44.177Z,2.10
2022-12-27T00:13:54.907Z,2.10
2022-12-27T00:14:05.647Z,1.90
2022-12-27T00:14:16.387Z,1.70
2022-12-27T00:14:29.584Z,1.70
2022-12-27T00:14:40.386Z,2.10
2022-12-27T00:14:51.137Z,2.10
2022-12-27T00:15:01.912Z,1.90
2022-12-27T00:15:12.708Z,1.90
2022-12-27T00:15:23.430Z,2.00
2022-12-27T00:15:34.191Z,2.70
2022-12-27T00:15:44.980Z,3.00
2022-12-27T00:15:55.698Z,3.10
2022-12-27T00:16:08.955Z,2.80
2022-12-27T00:16:19.743Z,3.00
2022-12-27T00:16:30.560Z,2.90
2022-12-27T00:16:42.329Z,3.10
2022-12-27T00:16:53.061Z,2.80
2022-12-27T00:17:03.805Z,3.00
2022-12-27T00:17:14.568Z,3.00
2022-12-27T00:17:27.027Z,2.80
2022-12-27T00:17:37.808Z,2.20
2022-12-27T00:17:48.575Z,1.70
2022-12-27T00:18:01.769Z,1.60
2022-12-27T00:18:16.759Z,2.00
2022-12-27T00:18:27.523Z,2.40
2022-12-27T00:18:39.965Z,2.00
2022-12-27T00:18:51.661Z,2.20
2022-12-27T00:19:03.387Z,1.90
2022-12-27T00:19:15.829Z,2.60
2022-12-27T00:19:26.590Z,2.60
2022-12-27T00:19:37.350Z,2.00
2022-12-27T00:19:48.075Z,1.90
2022-12-27T00:19:58.808Z,2.30
2022-12-27T00:20:12.199Z,2.50
2022-12-27T00:20:24.629Z,2.60
2022-12-27T00:20:35.396Z,2.00
2022-12-27T00:20:47.085Z,1.80
2022-12-27T00:20:59.273Z,1.90
2022-12-27T00:21:10.030Z,2.40
2022-12-27T00:21:20.747Z,2.70
2022-12-27T00:21:31.478Z,2.60
2022-12-27T00:21:42.220Z,2.30
2022-12-27T00:21:53.008Z,2.10
2022-12-27T00:22:03.717Z,1.90
2022-12-27T00:22:16.688Z,1.90
2022-12-27T00:22:29.908Z,2.20
2022-12-27T00:22:42.644Z,2.30
2022-12-27T00:22:55.574Z,2.60
2022-12-27T00:23:06.335Z,2.20
2022-12-27T00:23:17.069Z,2.10
2022-12-27T00:23:27.849Z,2.20
2022-12-27T00:23:38.591Z,2.10
2022-12-27T00:23:49.352Z,1.70
2022-12-27T00:24:00.099Z,1.70
2022-12-27T00:24:10.856Z,1.80
2022-12-27T00:24:21.586Z,2.10
2022-12-27T00:24:32.317Z,2.30
2022-12-27T00:24:43.044Z,2.40
2022-12-27T00:24:54.831Z,2.20
2022-12-27T00:25:05.577Z,2.10
2022-12-27T00:25:17.287Z,2.60
2022-12-27T00:25:28.028Z,2.60
2022-12-27T00:25:38.749Z,2.10
2022-12-27T00:25:49.511Z,2.40
2022-12-27T00:26:00.293Z,2.80
2022-12-27T00:26:11.005Z,2.70
2022-12-27T00:26:21.744Z,2.90
2022-12-27T00:26:32.470Z,3.00
2022-12-27T00:26:43.209Z,3.50
2022-12-27T00:26:54.906Z,3.40
2022-12-27T00:27:05.694Z,3.10
2022-12-27T00:27:16.421Z,2.80
2022-12-27T00:27:27.150Z,2.50
2022-12-27T00:27:37.899Z,2.40
2022-12-27T00:27:48.647Z,2.60
2022-12-27T00:27:59.382Z,2.70
2022-12-27T00:28:10.110Z,2.90
2022-12-27T00:28:21.822Z,2.60
2022-12-27T00:28:37.939Z,2.40
2022-12-27T00:28:48.691Z,2.40
2022-12-27T00:28:59.469Z,2.60
2022-12-27T00:29:10.223Z,3.20
2022-12-27T00:29:21.951Z,2.80
2022-12-27T00:29:32.675Z,2.60
2022-12-27T00:29:43.409Z,1.90
2022-12-27T00:29:54.144Z,1.90
2022-12-27T00:30:04.880Z,2.00
2022-12-27T00:30:15.615Z,2.30
2022-12-27T00:30:27.307Z,2.40
2022-12-27T00:30:39.522Z,2.40
2022-12-27T00:30:51.503Z,2.40
2022-12-27T00:31:02.282Z,2.30
2022-12-27T00:31:14.783Z,2.30
2022-12-27T00:31:27.282Z,2.40
2022-12-27T00:31:38.085Z,2.80
2022-12-27T00:31:48.892Z,2.70
2022-12-27T00:31:59.678Z,2.40
2022-12-27T00:32:11.390Z,1.90
2022-12-27T00:32:22.112Z,1.90
2022-12-27T00:32:34.580Z,2.00
2022-12-27T00:32:46.811Z,2.00
2022-12-27T00:33:00.047Z,2.00
2022-12-27T00:33:11.783Z,1.80
2022-12-27T00:33:23.991Z,2.10
2022-12-27T00:33:34.754Z,2.20
2022-12-27T00:33:46.483Z,2.30
2022-12-27T00:33:57.243Z,2.40
2022-12-27T00:34:08.027Z,2.20
2022-12-27T00:34:18.746Z,2.10
2022-12-27T00:34:29.494Z,2.50
2022-12-27T00:34:40.259Z,2.80
2022-12-27T00:34:50.971Z,2.90
2022-12-27T00:35:01.739Z,2.60
2022-12-27T00:35:12.472Z,2.10
2022-12-27T00:35:23.247Z,1.80
2022-12-27T00:35:33.997Z,1.80
2022-12-27T00:35:44.723Z,1.90
2022-12-27T00:35:55.500Z,1.90
2022-12-27T00:36:06.240Z,2.00
2022-12-27T00:36:16.972Z,2.10
2022-12-27T00:36:27.741Z,2.10
2022-12-27T00:36:38.483Z,2.20
2022-12-27T00:36:49.282Z,2.00
2022-12-27T00:37:00.015Z,2.10
2022-12-27T00:37:12.443Z,2.10
2022-12-27T00:37:24.909Z,2.10
2022-12-27T00:37:35.624Z,2.10
2022-12-27T00:37:46.353Z,2.20
2022-12-27T00:37:57.093Z,2.20
2022-12-27T00:38:09.528Z,2.00
2022-12-27T00:38:20.275Z,1.60
2022-12-27T00:38:31.972Z,2.20
2022-12-27T00:38:45.176Z,2.30
2022-12-27T00:38:58.445Z,2.60
2022-12-27T00:39:09.192Z,1.90
2022-12-27T00:39:21.630Z,1.70
2022-12-27T00:39:33.376Z,1.80
2022-12-27T00:39:44.116Z,2.00
2022-12-27T00:39:56.532Z,2.30
2022-12-27T00:40:07.262Z,2.20
2022-12-27T00:40:18.003Z,2.00
2022-12-27T00:40:28.738Z,1.50
2022-12-27T00:40:39.465Z,1.70
2022-12-27T00:40:50.239Z,1.70
2022-12-27T00:41:00.991Z,2.00
2022-12-27T00:41:12.725Z,2.20
2022-12-27T00:41:23.503Z,2.10
2022-12-27T00:41:34.298Z,2.10
2022-12-27T00:41:46.512Z,2.00
2022-12-27T00:41:57.252Z,1.90
2022-12-27T00:42:08.013Z,1.90
2022-12-27T00:42:18.770Z,1.60
2022-12-27T00:42:31.972Z,1.60
2022-12-27T00:42:42.702Z,1.50
2022-12-27T00:42:55.125Z,1.70
2022-12-27T00:43:08.343Z,2.20
2022-12-27T00:43:21.107Z,2.90
2022-12-27T00:43:31.853Z,2.70
2022-12-27T00:43:44.314Z,2.50
2022-12-27T00:43:55.056Z,2.10
2022-12-27T00:44:06.775Z,2.00
2022-12-27T00:44:17.535Z,2.30
2022-12-27T00:44:28.261Z,2.30
2022-12-27T00:44:39.014Z,2.80
2022-12-27T00:44:49.755Z,2.30
2022-12-27T00:45:00.486Z,2.00
2022-12-27T00:45:11.225Z,2.20
2022-12-27T00:45:21.999Z,2.70
2022-12-27T00:45:34.708Z,2.80
2022-12-27T00:45:45.465Z,2.70
2022-12-27T00:45:56.222Z,2.50
2022-12-27T00:46:06.975Z,2.70
2022-12-27T00:46:17.735Z,2.70
2022-12-27T00:46:28.465Z,2.00
2022-12-27T00:46:39.202Z,2.00
2022-12-27T00:46:49.935Z,2.00
2022-12-27T00:47:00.664Z,1.90
2022-12-27T00:47:11.415Z,2.00
2022-12-27T00:47:22.182Z,1.80
2022-12-27T00:47:33.183Z,1.90
2022-12-27T00:47:46.395Z,2.30
2022-12-27T00:47:57.135Z,2.10
2022-12-27T00:48:07.912Z,2.00
2022-12-27T00:48:18.632Z,2.10
2022-12-27T00:48:32.389Z,1.90
2022-12-27T00:48:43.255Z,1.70
2022-12-27T00:48:56.481Z,1.60
2022-12-27T00:49:10.091Z,1.40
2022-12-27T00:49:22.317Z,1.70
2022-12-27T00:49:35.252Z,1.90
2022-12-27T00:49:45.988Z,2.00
2022-12-27T00:49:56.744Z,2.20
2022-12-27T00:50:09.179Z,2.10
2022-12-27T00:50:19.906Z,2.30
2022-12-27T00:50:30.642Z,2.50
2022-12-27T00:50:43.095Z,2.40
2022-12-27T00:50:53.825Z,1.80
2022-12-27T00:51:04.579Z,2.00
2022-12-27T00:51:16.310Z,2.40
2022-12-27T00:51:29.522Z,2.20
2022-12-27T00:51:41.217Z,1.90
2022-12-27T00:51:53.170Z,1.80
2022-12-27T00:52:05.617Z,1.80
2022-12-27T00:52:16.357Z,1.90
2022-12-27T00:52:28.563Z,2.10
2022-12-27T00:52:39.290Z,2.60
2022-12-27T00:52:51.475Z,2.60
2022-12-27T00:53:02.215Z,2.20
2022-12-27T00:53:14.647Z,1.80
2022-12-27T00:53:26.873Z,1.70
2022-12-27T00:53:42.085Z,2.40
2022-12-27T00:53:52.838Z,2.60
2022-12-27T00:54:05.033Z,1.90
2022-12-27T00:54:15.837Z,1.60
2022-12-27T00:54:27.552Z,1.60
2022-12-27T00:54:38.318Z,1.70
2022-12-27T00:54:49.077Z,2.20
2022-12-27T00:55:01.290Z,2.30
2022-12-27T00:55:12.016Z,2.80
2022-12-27T00:55:22.780Z,2.40
2022-12-27T00:55:34.586Z,1.70
2022-12-27T00:55:45.356Z,1.80
2022-12-27T00:55:57.850Z,1.80
2022-12-27T00:56:08.625Z,2.00
2022-12-27T00:56:19.359Z,2.20
2022-12-27T00:56:30.084Z,2.00
2022-12-27T00:56:40.813Z,1.70
2022-12-27T00:56:53.271Z,1.70
2022-12-27T00:57:04.023Z,2.00
2022-12-27T00:57:14.748Z,1.90
2022-12-27T00:57:25.540Z,1.90
2022-12-27T00:57:36.347Z,2.00
2022-12-27T00:57:47.091Z,2.20
2022-12-27T00:58:00.316Z,2.10
2022-12-27T00:58:11.115Z,2.00
2022-12-27T00:58:21.860Z,2.20
2022-12-27T00:58:32.785Z,2.10
2022-12-27T00:58:44.950Z,1.90
2022-12-27T00:58:55.725Z,2.40
2022-12-27T00:59:06.468Z,3.00
2022-12-27T00:59:17.216Z,2.50
2022-12-27T00:59:31.448Z,2.30
2022-12-27T00:59:44.248Z,1.90
2022-12-27T00:59:56.935Z,1.90
2022-12-27T01:00:10.573Z,2.20
2022-12-27T01:00:23.469Z,2.40
2022-12-27T01:00:34.265Z,2.30
2022-12-27T01:00:45.161Z,2.10
2022-12-27T01:00:56.956Z,2.20
2022-12-27T01:01:07.755Z,2.60
2022-12-27T01:01:18.712Z,2.40
2022-12-27T01:01:29.639Z,2.60
2022-12-27T01:01:42.743Z,2.10
2022-12-27T01:01:53.780Z,2.40
2022-12-27T01:02:04.605Z,2.60
2022-12-27T01:02:15.391Z,2.50
2022-12-27T01:02:26.121Z,2.30
2022-12-27T01:02:36.903Z,1.80
2022-12-27T01:02:49.396Z,1.80
2022-12-27T01:03:02.008Z,1.80
2022-12-27T01:03:13.987Z,2.10
2022-12-27T01:03:26.459Z,2.00
2022-12-27T01:03:37.226Z,2.00
2022-12-27T01:03:48.053Z,2.40
2022-12-27T01:03:58.826Z,2.50
2022-12-27T01:04:09.678Z,2.20
2022-12-27T01:04:20.420Z,2.00
2022-12-27T01:04:31.188Z,2.10
2022-12-27T01:04:42.949Z,2.50
2022-12-27T01:04:53.719Z,2.60
2022-12-27T01:05:04.478Z,2.10
2022-12-27T01:05:15.248Z,2.20
2022-12-27T01:05:26.038Z,2.10
2022-12-27T01:05:36.767Z,2.10
2022-12-27T01:05:48.469Z,2.10
2022-12-27T01:06:00.209Z,2.30
2022-12-27T01:06:12.068Z,2.70
2022-12-27T01:06:24.528Z,2.90
2022-12-27T01:06:35.312Z,2.70
2022-12-27T01:06:46.062Z,2.30
2022-12-27T01:06:57.808Z,2.10
2022-12-27T01:07:08.608Z,1.80
2022-12-27T01:07:19.422Z,1.70
2022-12-27T01:07:31.869Z,1.90
2022-12-27T01:07:42.656Z,2.00
2022-12-27T01:07:53.429Z,1.80
2022-12-27T01:08:04.174Z,1.70
2022-12-27T01:08:14.901Z,1.50
2022-12-27T01:08:25.657Z,1.90
2022-12-27T01:08:36.380Z,1.70
2022-12-27T01:08:47.160Z,1.70
2022-12-27T01:08:58.176Z,1.40
2022-12-27T01:09:08.991Z,2.20
2022-12-27T01:09:19.716Z,2.30
2022-12-27T01:09:30.449Z,2.40
2022-12-27T01:09:41.241Z,1.90
2022-12-27T01:09:51.976Z,1.80
2022-12-27T01:10:05.181Z,1.70
2022-12-27T01:10:15.925Z,1.70
2022-12-27T01:10:26.642Z,2.00
2022-12-27T01:10:37.379Z,2.10
2022-12-27T01:10:48.127Z,2.10
2022-12-27T01:10:58.849Z,2.10
2022-12-27T01:11:09.853Z,2.10
2022-12-27T01:11:20.611Z,1.90
2022-12-27T01:11:32.308Z,1.90
2022-12-27T01:11:43.047Z,2.20
2022-12-27T01:11:53.783Z,2.20
2022-12-27T01:12:04.541Z,2.20
2022-12-27T01:12:15.258Z,2.30
2022-12-27T01:12:25.994Z,2.30
2022-12-27T01:12:36.749Z,2.10
2022-12-27T01:12:47.499Z,1.90
2022-12-27T01:12:58.227Z,1.80
2022-12-27T01:13:11.010Z,2.40
2022-12-27T01:13:23.541Z,2.30
2022-12-27T01:13:34.279Z,2.40
2022-12-27T01:13:46.755Z,2.00
2022-12-27T01:13:57.529Z,2.00
2022-12-27T01:14:09.251Z,2.00
2022-12-27T01:14:19.979Z,2.40
2022-12-27T01:14:30.715Z,2.10
2022-12-27T01:14:41.440Z,1.80
2022-12-27T01:14:52.211Z,2.00
2022-12-27T01:15:05.469Z,1.90
2022-12-27T01:15:16.221Z,2.20
2022-12-27T01:15:27.019Z,2.10
2022-12-27T01:15:38.735Z,2.10
2022-12-27T01:15:49.497Z,2.10
2022-12-27T01:16:00.242Z,2.10
2022-12-27T01:16:14.628Z,2.00
2022-12-27T01:16:25.461Z,1.70
2022-12-27T01:16:37.249Z,1.70
2022-12-27T01:16:48.073Z,2.30
2022-12-27T01:16:58.944Z,2.70
2022-12-27T01:17:11.411Z,2.70
2022-12-27T01:17:23.189Z,2.70
2022-12-27T01:17:33.970Z,2.90
2022-12-27T01:17:45.737Z,2.40
2022-12-27T01:17:56.503Z,2.10
2022-12-27T01:18:07.239Z,2.20
2022-12-27T01:18:17.976Z,2.20
2022-12-27T01:18:28.729Z,1.90
2022-12-27T01:18:39.460Z,1.60
2022-12-27T01:18:51.920Z,1.70
2022-12-27T01:19:02.661Z,1.70
2022-12-27T01:19:13.421Z,1.80
2022-12-27T01:19:24.233Z,2.20
2022-12-27T01:19:35.008Z,2.60
2022-12-27T01:19:45.730Z,2.40
2022-12-27T01:19:56.461Z,2.50
2022-12-27T01:20:07.212Z,2.80
2022-12-27T01:20:17.968Z,2.80
2022-12-27T01:20:28.719Z,1.90
2022-12-27T01:20:39.450Z,1.50
2022-12-27T01:20:51.901Z,1.50
2022-12-27T01:21:02.639Z,2.00
2022-12-27T01:21:13.363Z,2.20
2022-12-27T01:21:25.078Z,2.20
2022-12-27T01:21:35.803Z,1.90
2022-12-27T01:21:46.521Z,2.20
2022-12-27T01:21:57.284Z,2.20
2022-12-27T01:22:08.015Z,1.80
2022-12-27T01:22:18.743Z,1.50
2022-12-27T01:22:29.486Z,1.50
2022-12-27T01:22:40.221Z,1.60
2022-12-27T01:22:50.941Z,1.70
2022-12-27T01:23:01.704Z,1.80
2022-12-27T01:23:12.433Z,1.80
2022-12-27T01:23:27.211Z,1.70
2022-12-27T01:23:37.965Z,1.80
2022-12-27T01:23:50.677Z,2.00
2022-12-27T01:24:04.915Z,2.20
2022-12-27T01:24:15.947Z,2.20
2022-12-27T01:24:26.710Z,1.70
2022-12-27T01:24:37.479Z,1.70
2022-12-27T01:24:48.195Z,1.80
2022-12-27T01:24:58.922Z,2.10
2022-12-27T01:25:09.674Z,1.90
2022-12-27T01:25:22.384Z,1.80
2022-12-27T01:25:34.601Z,1.90
2022-12-27T01:25:45.336Z,1.80
2022-12-27T01:25:58.553Z,1.80
2022-12-27T01:26:11.044Z,1.40
2022-12-27T01:26:22.014Z,1.50
2022-12-27T01:26:37.263Z,1.40
2022-12-27T01:26:49.689Z,1.60
2022-12-27T01:27:00.443Z,1.70
2022-12-27T01:27:11.203Z,1.80
2022-12-27T01:27:24.404Z,1.40
2022-12-27T01:27:39.663Z,1.60
2022-12-27T01:27:52.422Z,1.60
2022-12-27T01:28:04.641Z,1.60
2022-12-27T01:28:15.372Z,1.80
2022-12-27T01:28:26.132Z,2.30
2022-12-27T01:28:36.883Z,2.20
2022-12-27T01:28:47.646Z,2.10
2022-12-27T01:28:58.379Z,1.80
2022-12-27T01:29:10.071Z,1.90
2022-12-27T01:29:20.826Z,2.00
2022-12-27T01:29:31.572Z,2.00
2022-12-27T01:29:44.541Z,1.70
2022-12-27T01:29:56.982Z,1.50
2022-12-27T01:30:07.733Z,1.30
2022-12-27T01:30:19.466Z,1.70
2022-12-27T01:30:31.893Z,1.90
2022-12-27T01:30:45.126Z,2.00
2022-12-27T01:30:55.846Z,1.90
2022-12-27T01:31:06.600Z,2.00
2022-12-27T01:31:17.370Z,2.00
2022-12-27T01:31:28.395Z,1.70
2022-12-27T01:31:39.314Z,1.80
2022-12-27T01:31:50.186Z,1.40
2022-12-27T01:32:01.060Z,1.50
2022-12-27T01:32:12.785Z,2.00
2022-12-27T01:32:23.521Z,2.10
2022-12-27T01:32:34.243Z,1.70
2022-12-27T01:32:44.973Z,1.70
2022-12-27T01:32:55.982Z,1.50
2022-12-27T01:33:06.714Z,1.50
2022-12-27T01:33:17.537Z,1.60
2022-12-27T01:33:28.313Z,1.70
2022-12-27T01:33:39.037Z,1.60
2022-12-27T01:33:52.879Z,2.10
2022-12-27T01:34:04.662Z,2.00
2022-12-27T01:34:17.074Z,1.50
2022-12-27T01:34:30.284Z,1.30
2022-12-27T01:34:41.082Z,1.70
2022-12-27T01:34:51.844Z,1.70
2022-12-27T01:35:04.544Z,1.90
2022-12-27T01:35:15.273Z,1.70
2022-12-27T01:35:26.023Z,1.60
2022-12-27T01:35:36.804Z,1.70
2022-12-27T01:35:49.265Z,1.80
2022-12-27T01:36:00.044Z,1.60
2022-12-27T01:36:10.805Z,1.50
2022-12-27T01:36:21.615Z,1.40
2022-12-27T01:36:33.335Z,1.30
2022-12-27T01:36:45.036Z,1.70
2022-12-27T01:36:58.356Z,1.70
2022-12-27T01:37:10.064Z,2.00
2022-12-27T01:37:20.821Z,1.80
2022-12-27T01:37:34.547Z,1.70
2022-12-27T01:37:45.343Z,2.00
2022-12-27T01:37:58.837Z,2.70
2022-12-27T01:38:11.095Z,2.60
2022-12-27T01:38:24.054Z,2.30
2022-12-27T01:38:34.794Z,1.60
2022-12-27T01:38:45.562Z,2.00
2022-12-27T01:38:56.299Z,2.10
2022-12-27T01:39:07.049Z,1.90
2022-12-27T01:39:17.777Z,1.90
2022-12-27T01:39:28.515Z,1.80
2022-12-27T01:39:39.298Z,2.10
2022-12-27T01:39:50.084Z,2.70
2022-12-27T01:40:02.037Z,3.00
2022-12-27T01:40:12.804Z,2.70
2022-12-27T01:40:23.545Z,2.40
2022-12-27T01:40:34.316Z,2.30
2022-12-27T01:40:45.118Z,2.00
2022-12-27T01:40:55.816Z,2.20
2022-12-27T01:41:06.608Z,2.10
2022-12-27T01:41:17.385Z,2.30
2022-12-27T01:41:29.096Z,2.20
2022-12-27T01:41:39.822Z,2.50
2022-12-27T01:41:50.569Z,2.10
2022-12-27T01:42:01.305Z,2.00
2022-12-27T01:42:12.026Z,1.70
2022-12-27T01:42:22.768Z,1.60
2022-12-27T01:42:33.497Z,1.50
2022-12-27T01:42:44.288Z,1.40
2022-12-27T01:42:55.016Z,1.40
2022-12-27T01:43:05.750Z,1.50
2022-12-27T01:43:16.476Z,1.50
2022-12-27T01:43:27.212Z,1.60
2022-12-27T01:43:37.990Z,1.50
2022-12-27T01:43:48.719Z,1.50
2022-12-27T01:43:59.477Z,1.60
2022-12-27T01:44:12.216Z,1.70
2022-12-27T01:44:25.173Z,1.70
2022-12-27T01:44:36.876Z,2.00
2022-12-27T01:44:49.506Z,2.10
2022-12-27T01:45:00.440Z,1.70
2022-12-27T01:45:11.171Z,1.70
2022-12-27T01:45:21.917Z,1.80
2022-12-27T01:45:32.695Z,2.00
2022-12-27T01:45:43.536Z,2.20
2022-12-27T01:45:56.002Z,2.00
2022-12-27T01:46:08.947Z,1.70
2022-12-27T01:46:20.675Z,1.60
2022-12-27T01:46:31.433Z,1.70
2022-12-27T01:46:42.208Z,1.80
2022-12-27T01:46:54.964Z,1.70
2022-12-27T01:47:05.666Z,1.50
2022-12-27T01:47:17.936Z,1.50
2022-12-27T01:47:30.402Z,1.60
2022-12-27T01:47:41.139Z,1.70
2022-12-27T01:47:51.877Z,1.90
2022-12-27T01:48:03.834Z,2.10
2022-12-27T01:48:17.300Z,2.40
2022-12-27T01:48:30.556Z,2.70
2022-12-27T01:48:42.276Z,2.50
2022-12-27T01:48:54.710Z,2.00
2022-12-27T01:49:05.467Z,1.80
2022-12-27T01:49:16.192Z,1.90
2022-12-27T01:49:26.937Z,1.90
2022-12-27T01:49:37.667Z,1.80
2022-12-27T01:49:48.412Z,2.10
2022-12-27T01:49:59.147Z,1.90
2022-12-27T01:50:09.922Z,1.60
2022-12-27T01:50:22.889Z,1.30
2022-12-27T01:50:33.619Z,1.60
2022-12-27T01:50:44.348Z,1.80
2022-12-27T01:50:55.090Z,2.00
2022-12-27T01:51:05.819Z,1.70
2022-12-27T01:51:16.558Z,1.50
2022-12-27T01:51:27.319Z,1.30
2022-12-27T01:51:38.069Z,1.50
2022-12-27T01:51:50.480Z,1.70
2022-12-27T01:52:01.227Z,1.90
2022-12-27T01:52:11.956Z,1.60
2022-12-27T01:52:22.759Z,1.60
2022-12-27T01:52:35.153Z,1.60
2022-12-27T01:52:46.086Z,1.80
2022-12-27T01:52:57.758Z,1.70
2022-12-27T01:53:08.509Z,1.50
2022-12-27T01:53:19.248Z,2.50
2022-12-27T01:53:30.029Z,3.10
2022-12-27T01:53:40.767Z,2.50
2022-12-27T01:53:51.497Z,2.70
2022-12-27T01:54:02.271Z,2.20
2022-12-27T01:54:13.005Z,1.80
2022-12-27T01:54:28.247Z,1.40
2022-12-27T01:54:38.988Z,1.50
2022-12-27T01:54:49.797Z,1.70
2022-12-27T01:55:01.551Z,1.70
2022-12-27T01:55:15.170Z,1.70
2022-12-27T01:55:25.936Z,1.70
2022-12-27T01:55:36.658Z,1.50
2022-12-27T01:55:48.375Z,1.40
2022-12-27T01:55:59.112Z,1.70
2022-12-27T01:56:09.856Z,1.90
2022-12-27T01:56:20.615Z,2.20
2022-12-27T01:56:34.841Z,2.00
2022-12-27T01:56:45.649Z,2.00
2022-12-27T01:56:58.130Z,1.60
2022-12-27T01:57:08.868Z,1.60
2022-12-27T01:57:19.649Z,2.20
2022-12-27T01:57:32.599Z,2.10
2022-12-27T01:57:45.339Z,2.10
2022-12-27T01:57:58.434Z,1.90
2022-12-27T01:58:09.190Z,1.70
2022-12-27T01:58:21.408Z,1.80
2022-12-27T01:58:34.391Z,1.90
2022-12-27T01:58:46.869Z,2.30
2022-12-27T01:58:57.624Z,2.50
2022-12-27T01:59:09.344Z,2.30
2022-12-27T01:59:21.048Z,2.50
2022-12-27T01:59:31.820Z,2.30
2022-12-27T01:59:42.585Z,1.90
2022-12-27T01:59:53.299Z,1.90
2022-12-27T02:00:04.090Z,1.90
2022-12-27T02:00:15.780Z,1.80
2022-12-27T02:00:28.476Z,1.90
2022-12-27T02:00:40.181Z,2.00
2022-12-27T02:00:51.009Z,1.60
2022-12-27T02:01:01.837Z,1.40
2022-12-27T02:01:12.618Z,1.60
2022-12-27T02:01:23.556Z,1.90
2022-12-27T02:01:35.513Z,1.90
2022-12-27T02:01:46.486Z,1.70
2022-12-27T02:01:57.473Z,2.20
2022-12-27T02:02:09.420Z,2.90
2022-12-27T02:02:20.436Z,3.00
2022-12-27T02:02:31.290Z,3.30
2022-12-27T02:02:42.200Z,3.00
2022-12-27T02:02:53.067Z,2.90
2022-12-27T02:03:03.867Z,2.90
2022-12-27T02:03:14.701Z,2.60
2022-12-27T02:03:27.190Z,2.10
2022-12-27T02:03:37.930Z,2.60
2022-12-27T02:03:48.710Z,3.00
2022-12-27T02:04:01.178Z,2.80
2022-12-27T02:04:11.909Z,1.90
2022-12-27T02:04:22.667Z,2.00
2022-12-27T02:04:33.391Z,2.60
2022-12-27T02:04:49.124Z,2.60
2022-12-27T02:04:59.872Z,1.90
2022-12-27T02:05:12.337Z,2.40
2022-12-27T02:05:24.789Z,2.20
2022-12-27T02:05:36.518Z,2.10
2022-12-27T02:05:47.261Z,2.10
2022-12-27T02:05:58.019Z,1.90
2022-12-27T02:06:10.453Z,1.60
2022-12-27T02:06:21.220Z,2.00
2022-12-27T02:06:31.960Z,2.40
2022-12-27T02:06:43.677Z,2.50
2022-12-27T02:06:55.690Z,1.90
2022-12-27T02:07:06.401Z,1.70
2022-12-27T02:07:19.621Z,1.60
2022-12-27T02:07:31.327Z,1.50
2022-12-27T02:07:42.075Z,1.50
2022-12-27T02:07:53.812Z,1.40
2022-12-27T02:08:06.566Z,1.40
2022-12-27T02:08:18.259Z,1.50
2022-12-27T02:08:29.044Z,1.80
2022-12-27T02:08:41.972Z,1.80
2022-12-27T02:08:52.772Z,1.90
2022-12-27T02:09:06.033Z,2.00
2022-12-27T02:09:16.791Z,2.50
2022-12-27T02:09:29.985Z,3.00
2022-12-27T02:09:43.217Z,3.00
2022-12-27T02:09:55.678Z,2.20
2022-12-27T02:10:07.888Z,1.50
2022-12-27T02:10:18.632Z,1.60
2022-12-27T02:10:29.431Z,1.70
2022-12-27T02:10:40.164Z,1.50
2022-12-27T02:10:50.892Z,1.60
2022-12-27T02:11:03.311Z,1.60
2022-12-27T02:11:14.104Z,1.60
2022-12-27T02:11:24.860Z,1.60
2022-12-27T02:11:35.593Z,2.10
2022-12-27T02:11:47.291Z,2.20
2022-12-27T02:11:58.054Z,2.20
2022-12-27T02:12:08.773Z,1.90
2022-12-27T02:12:19.517Z,2.00
2022-12-27T02:12:31.953Z,1.90
2022-12-27T02:12:42.703Z,1.90
2022-12-27T02:12:53.433Z,2.00
2022-12-27T02:13:05.169Z,1.70
2022-12-27T02:13:15.891Z,1.60
2022-12-27T02:13:26.626Z,1.80
2022-12-27T02:13:38.361Z,2.10
2022-12-27T02:13:49.342Z,2.20
2022-12-27T02:14:00.131Z,2.20
2022-12-27T02:14:11.862Z,2.60
2022-12-27T02:14:27.641Z,2.70
2022-12-27T02:14:39.900Z,2.50
2022-12-27T02:14:50.643Z,2.40
2022-12-27T02:15:02.981Z,2.30
2022-12-27T02:15:16.707Z,2.30
2022-12-27T02:15:28.952Z,2.00
2022-12-27T02:15:42.179Z,2.40
2022-12-27T02:15:54.613Z,2.30
2022-12-27T02:16:05.343Z,1.60
2022-12-27T02:16:17.602Z,1.80
2022-12-27T02:16:29.386Z,1.90
2022-12-27T02:16:40.140Z,1.90
2022-12-27T02:16:50.953Z,2.10
2022-12-27T02:17:01.742Z,2.50
2022-12-27T02:17:14.042Z,2.60
2022-12-27T02:17:24.781Z,2.40
2022-12-27T02:17:38.438Z,2.40
2022-12-27T02:17:49.153Z,2.10
2022-12-27T02:17:59.892Z,1.90
2022-12-27T02:18:13.630Z,2.00
2022-12-27T02:18:26.865Z,2.00
2022-12-27T02:18:39.282Z,1.90
2022-12-27T02:18:50.033Z,2.00
2022-12-27T02:19:01.753Z,3.00
2022-12-27T02:19:14.027Z,2.90
2022-12-27T02:19:26.771Z,2.70
2022-12-27T02:19:37.552Z,2.40
2022-12-27T02:19:50.492Z,3.00
2022-12-27T02:20:02.202Z,3.40
2022-12-27T02:20:12.966Z,3.70
2022-12-27T02:20:23.703Z,3.00
2022-12-27T02:20:34.422Z,2.70
2022-12-27T02:20:45.191Z,1.90
2022-12-27T02:20:56.905Z,1.70
2022-12-27T02:21:07.641Z,1.80
2022-12-27T02:21:18.394Z,1.80
2022-12-27T02:21:30.907Z,1.90
2022-12-27T02:21:41.645Z,1.90
2022-12-27T02:21:52.379Z,1.80
2022-12-27T02:22:03.106Z,2.50
2022-12-27T02:22:15.542Z,2.40
2022-12-27T02:22:26.300Z,2.20
2022-12-27T02:22:37.057Z,1.70
2022-12-27T02:22:49.463Z,2.00
2022-12-27T02:23:00.212Z,2.10
2022-12-27T02:23:10.934Z,1.90
2022-12-27T02:23:21.667Z,1.80
2022-12-27T02:23:39.165Z,1.70
2022-12-27T02:23:48.125Z,1.60
2022-12-27T02:24:00.567Z,1.90
2022-12-27T02:24:12.642Z,2.70
2022-12-27T02:24:24.962Z,2.70
2022-12-27T02:24:35.854Z,2.40
2022-12-27T02:24:47.675Z,2.10
2022-12-27T02:24:59.487Z,1.70
2022-12-27T02:25:10.294Z,1.60
2022-12-27T02:25:21.194Z,2.20
2022-12-27T02:25:34.292Z,2.60
2022-12-27T02:25:48.038Z,2.50
2022-12-27T02:25:58.830Z,2.30
2022-12-27T02:26:12.044Z,2.30
2022-12-27T02:26:22.796Z,2.20
2022-12-27T02:26:33.595Z,2.20
2022-12-27T02:26:46.548Z,2.00
2022-12-27T02:26:57.305Z,2.20
2022-12-27T02:27:08.067Z,2.20
2022-12-27T02:27:18.839Z,2.20
2022-12-27T02:27:32.561Z,1.90
2022-12-27T02:27:44.981Z,1.80
2022-12-27T02:27:57.433Z,1.70
2022-12-27T02:28:08.196Z,2.20
2022-12-27T02:28:18.936Z,2.10
2022-12-27T02:28:31.386Z,2.50
2022-12-27T02:28:44.143Z,2.20
2022-12-27T02:28:54.888Z,2.40
2022-12-27T02:29:07.606Z,2.10
2022-12-27T02:29:18.325Z,2.30
2022-12-27T02:29:29.089Z,2.20
2022-12-27T02:29:41.289Z,2.30
2022-12-27T02:29:54.525Z,2.00
2022-12-27T02:30:07.506Z,1.60
2022-12-27T02:30:20.435Z,2.50
2022-12-27T02:30:31.240Z,2.60
2022-12-27T02:30:42.983Z,1.70
2022-12-27T02:30:53.712Z,1.60
2022-12-27T02:31:04.454Z,1.60
2022-12-27T02:31:16.186Z,1.80
2022-12-27T02:31:27.882Z,1.90
2022-12-27T02:31:41.317Z,1.80
2022-12-27T02:31:52.066Z,2.40
2022-12-27T02:32:02.815Z,2.30